Time;durP1;ratioP1;P1;durP2;ratioP2;P2;SDS_P1;SDS_P2;PMS_P1;PMS_P2;Temp;Humidity;BMP_temperature;BMP_pressure;BME280_temperature;BME280_humidity;BME280_pressure;Samples;Min_cycle;Max_cycle;Signal;HPM_P1;HPM_P2
2022/12/17 13:06:42;;;;;;;154.52;44.95;;;;;;;;;;6206013;23;20025;-59
2022/12/17 13:09:15;;;;;;;146.40;46.05;;;;;;;;;;6178951;23;20020;-54
2022/12/17 13:11:53;;;;;;;146.45;47.00;;;;;;;;;;6204335;23;20031;-67
2022/12/17 13:14:23;;;;;;;157.60;47.22;;;;;;;;;;6206362;23;20107;-68
2022/12/17 13:17:01;;;;;;;175.13;49.15;;;;;;;;;;6205304;23;20154;-68
2022/12/17 13:19:46;;;;;;;149.20;40.58;;;;;;;;;;6205163;23;20024;-67
2022/12/17 13:22:20;;;;;;;149.13;44.53;;;;;;;;;;6205540;23;20100;-68
2022/12/17 13:24:51;;;;;;;146.95;42.90;;;;;;;;;;6204835;23;20028;-68
2022/12/17 13:27:31;;;;;;;135.90;40.60;;;;;;;;;;6204931;23;20556;-67
2022/12/17 13:30:17;;;;;;;144.73;43.28;;;;;;;;;;6206415;23;20135;-54
2022/12/17 13:33:03;;;;;;;153.35;43.13;;;;;;;;;;6206654;23;20039;-51
2022/12/17 13:35:58;;;;;;;135.32;43.95;;;;;;;;;;6207696;23;20052;-52
2022/12/17 13:38:44;;;;;;;135.07;41.50;;;;;;;;;;6210387;23;20024;-53
2022/12/17 13:41:19;;;;;;;88.75;29.88;;;;;;;;;;6209729;23;20026;-50
2022/12/17 13:43:55;;;;;;;143.20;41.05;;;;;;;;;;6209794;23;20017;-50
2022/12/17 13:46:22;;;;;;;154.23;44.05;;;;;;;;;;6211457;23;20035;-52
2022/12/17 13:49:00;;;;;;;162.77;43.90;;;;;;;;;;6210200;23;20023;-54
2022/12/17 13:51:29;;;;;;;177.13;53.03;;;;;;;;;;6210607;23;20045;-49
2022/12/17 13:54:03;;;;;;;145.27;43.55;;;;;;;;;;6209451;23;20031;-47
2022/12/17 13:56:32;;;;;;;139.32;43.47;;;;;;;;;;6210400;23;20107;-48
2022/12/17 13:59:03;;;;;;;140.25;41.85;;;;;;;;;;6209248;23;20095;-46
2022/12/17 14:01:44;;;;;;;138.07;41.83;;;;;;;;;;6209236;23;20024;-46
2022/12/17 14:04:23;;;;;;;147.65;43.03;;;;;;;;;;6208699;23;20020;-46
2022/12/17 14:06:58;;;;;;;140.57;39.78;;;;;;;;;;6208607;23;20099;-54
2022/12/17 14:09:31;;;;;;;145.70;44.05;;;;;;;;;;6208334;23;20020;-48
2022/12/17 14:12:21;;;;;;;136.13;41.92;;;;;;;;;;6209118;23;20541;-64
2022/12/17 14:14:59;;;;;;;122.88;38.00;;;;;;;;;;6208984;23;20017;-64
2022/12/17 14:17:44;;;;;;;123.15;35.35;;;;;;;;;;6208088;23;20016;-65
2022/12/17 14:20:31;;;;;;;140.18;44.42;;;;;;;;;;6209460;23;20020;-65
2022/12/17 14:23:12;;;;;;;153.35;41.85;;;;;;;;;;6210623;23;20159;-65
2022/12/17 14:25:47;;;;;;;149.88;45.17;;;;;;;;;;6208384;23;20103;-58
2022/12/17 14:28:31;;;;;;;143.77;42.22;;;;;;;;;;6208215;23;20480;-65
2022/12/17 14:31:18;;;;;;;136.15;39.85;;;;;;;;;;6207952;23;20024;-52
2022/12/17 14:34:06;;;;;;;144.75;43.13;;;;;;;;;;6207420;23;20094;-56
2022/12/17 14:36:41;;;;;;;154.43;44.80;;;;;;;;;;6203944;23;20029;-53
2022/12/17 14:39:19;;;;;;;149.00;43.08;;;;;;;;;;6201870;23;20723;-54
2022/12/17 14:44:50;;;;;;;149.48;43.15;;;;;;;;;;6200241;23;20052;-52
2022/12/17 14:47:25;;;;;;;128.70;38.45;;;;;;;;;;6203708;23;20024;-67
2022/12/17 14:49:54;;;;;;;143.60;38.80;;;;;;;;;;6207886;23;20127;-59
2022/12/17 14:52:45;;;;;;;133.30;39.92;;;;;;;;;;6208267;23;20362;-60
2022/12/17 14:55:21;;;;;;;146.10;43.83;;;;;;;;;;6207309;23;20020;-57
2022/12/17 14:58:06;;;;;;;156.48;44.05;;;;;;;;;;6206977;23;20060;-58
2022/12/17 15:00:36;;;;;;;146.57;40.70;;;;;;;;;;6208453;23;20096;-56
2022/12/17 15:03:12;;;;;;;144.48;41.72;;;;;;;;;;6206523;23;20029;-59
2022/12/17 15:05:39;;;;;;;136.50;40.97;;;;;;;;;;6207572;23;20018;-63
2022/12/17 15:08:06;;;;;;;143.18;43.85;;;;;;;;;;6206966;23;20421;-65
2022/12/17 15:10:40;;;;;;;152.07;43.38;;;;;;;;;;6207401;23;20395;-65
2022/12/17 15:13:07;;;;;;;136.70;41.33;;;;;;;;;;6207285;23;20052;-64
2022/12/17 15:15:34;;;;;;;157.45;42.38;;;;;;;;;;6204571;23;20101;-66
2022/12/17 15:18:15;;;;;;;159.90;46.50;;;;;;;;;;6204902;23;20028;-63
2022/12/17 15:20:49;;;;;;;174.55;44.83;;;;;;;;;;6208411;23;20482;-65
2022/12/17 15:23:22;;;;;;;149.30;40.45;;;;;;;;;;6205542;23;20028;-60
2022/12/17 15:25:49;;;;;;;;;;;;;;;;;;6206822;23;20021;-51
2022/12/17 15:28:17;;;;;;;147.25;42.10;;;;;;;;;;6207431;23;19998;-55
2022/12/17 15:30:51;;;;;;;135.60;38.85;;;;;;;;;;6207708;23;20111;-56
2022/12/17 15:33:18;;;;;;;137.68;40.53;;;;;;;;;;6205633;23;20025;-55
2022/12/17 15:35:52;;;;;;;123.93;39.60;;;;;;;;;;6207084;23;20025;-56
2022/12/17 15:38:19;;;;;;;143.27;42.25;;;;;;;;;;6206980;23;20332;-55
2022/12/17 15:40:46;;;;;;;134.52;40.97;;;;;;;;;;6208279;23;20099;-54
2022/12/17 15:43:20;;;;;;;118.32;40.28;;;;;;;;;;6206616;23;20031;-56
2022/12/17 15:45:48;;;;;;;131.85;42.42;;;;;;;;;;6206737;23;20473;-52
2022/12/17 15:48:22;;;;;;;138.45;42.85;;;;;;;;;;6206826;23;20035;-56
2022/12/17 15:50:49;;;;;;;120.50;35.17;;;;;;;;;;6206191;23;20025;-54
2022/12/17 15:53:23;;;;;;;123.57;39.80;;;;;;;;;;6199354;23;20099;-49
2022/12/17 15:55:50;;;;;;;119.53;44.25;;;;;;;;;;6207556;23;20017;-54
2022/12/17 15:58:18;;;;;;;108.57;33.30;;;;;;;;;;6206804;23;20039;-54
2022/12/17 16:00:51;;;;;;;112.70;36.55;;;;;;;;;;6207401;23;20537;-55
2022/12/17 16:03:18;;;;;;;116.50;38.67;;;;;;;;;;6207414;23;20020;-66
2022/12/17 16:05:52;;;;;;;115.13;39.97;;;;;;;;;;6208033;23;20025;-65
2022/12/17 16:08:19;;;;;;;112.97;37.28;;;;;;;;;;6206567;23;20099;-65
2022/12/17 16:10:53;;;;;;;114.03;37.75;;;;;;;;;;6206917;23;20043;-65
2022/12/17 16:13:20;;;;;;;118.32;37.25;;;;;;;;;;6207816;23;20021;-65
2022/12/17 16:15:56;;;;;;;112.60;39.05;;;;;;;;;;6206764;23;20040;-65
2022/12/17 16:18:37;;;;;;;119.65;36.25;;;;;;;;;;6207015;23;20039;-65
2022/12/17 16:21:12;;;;;;;112.32;33.72;;;;;;;;;;6207597;23;20071;-47
2022/12/17 16:23:45;;;;;;;114.88;35.83;;;;;;;;;;6205859;23;20143;-56
2022/12/17 16:26:12;;;;;;;102.55;34.53;;;;;;;;;;6208468;23;20024;-48
2022/12/17 16:28:42;;;;;;;105.60;35.08;;;;;;;;;;6203366;23;20540;-49
2022/12/17 16:31:16;;;;;;;109.38;34.67;;;;;;;;;;6203127;23;20029;-54
2022/12/17 16:33:44;;;;;;;107.10;36.97;;;;;;;;;;6204708;23;20549;-51
2022/12/17 16:36:19;;;;;;;95.63;32.15;;;;;;;;;;6204243;23;20592;-49
2022/12/17 16:38:47;;;;;;;90.22;33.00;;;;;;;;;;6203088;23;20111;-53
2022/12/17 16:41:15;;;;;;;108.22;33.47;;;;;;;;;;6205276;23;20025;-64
2022/12/17 16:43:49;;;;;;;97.53;32.67;;;;;;;;;;6204215;23;20020;-67
2022/12/17 16:46:30;;;;;;;97.75;32.38;;;;;;;;;;6203698;23;20100;-67
2022/12/17 16:49:08;;;;;;;100.22;34.42;;;;;;;;;;6205052;23;20024;-67
2022/12/17 16:51:36;;;;;;;112.70;36.88;;;;;;;;;;6205085;23;20024;-68
2022/12/17 16:54:08;;;;;;;111.82;36.33;;;;;;;;;;6203564;23;20031;-67
2022/12/17 16:56:41;;;;;;;95.70;36.25;;;;;;;;;;6204954;23;20028;-68
2022/12/17 16:59:09;;;;;;;106.93;35.72;;;;;;;;;;6203780;23;20406;-51
2022/12/17 17:01:44;;;;;;;111.35;36.42;;;;;;;;;;6204709;23;20120;-68
2022/12/17 17:04:12;;;;;;;105.97;34.67;;;;;;;;;;6204264;23;20027;-60
2022/12/17 17:06:41;;;;;;;101.18;35.28;;;;;;;;;;6204526;23;20179;-58
2022/12/17 17:09:14;;;;;;;106.70;37.45;;;;;;;;;;6204293;23;20020;-57
2022/12/17 17:11:42;;;;;;;104.35;37.47;;;;;;;;;;6203713;23;20090;-59
2022/12/17 17:14:18;;;;;;;101.15;37.08;;;;;;;;;;6203448;23;20020;-59
2022/12/17 17:16:45;;;;;;;93.07;34.63;;;;;;;;;;6203504;23;20111;-56
2022/12/17 17:19:26;;;;;;;101.72;35.80;;;;;;;;;;6203710;23;20361;-60
2022/12/17 17:21:53;;;;;;;100.72;34.55;;;;;;;;;;6204156;23;20100;-47
2022/12/17 17:24:27;;;;;;;96.63;36.53;;;;;;;;;;6204393;23;20020;-47
2022/12/17 17:26:55;;;;;;;106.45;35.40;;;;;;;;;;6204674;23;20025;-46
2022/12/17 17:29:22;;;;;;;;;;;;;;;;;;6203647;23;20023;-48
2022/12/17 17:31:55;;;;;;;87.38;29.35;;;;;;;;;;6204628;23;20002;-46
2022/12/17 17:34:39;;;;;;;96.72;34.50;;;;;;;;;;6205036;23;20063;-47
2022/12/17 17:37:13;;;;;;;99.32;32.78;;;;;;;;;;6203999;23;20324;-68
2022/12/17 17:39:40;;;;;;;95.07;33.30;;;;;;;;;;6203847;23;20021;-53
2022/12/17 17:42:07;;;;;;;96.20;32.33;;;;;;;;;;6177785;23;20064;-67
2022/12/17 17:44:41;;;;;;;97.45;30.88;;;;;;;;;;6204364;23;20023;-68
2022/12/17 17:47:08;;;;;;;95.97;32.47;;;;;;;;;;6201593;23;20466;-68
2022/12/17 17:49:35;;;;;;;84.40;32.17;;;;;;;;;;6203746;23;20357;-68
2022/12/17 17:52:09;;;;;;;114.80;34.65;;;;;;;;;;6201530;23;20028;-67
2022/12/17 17:54:38;;;;;;;124.43;49.13;;;;;;;;;;6203126;23;20029;-68
2022/12/17 17:57:12;;;;;;;97.30;33.17;;;;;;;;;;6205939;23;20029;-67
2022/12/17 17:59:39;;;;;;;103.28;34.33;;;;;;;;;;6201690;23;20031;-56
2022/12/17 18:02:13;;;;;;;88.05;31.73;;;;;;;;;;6203244;23;20466;-52
2022/12/17 18:04:40;;;;;;;102.13;36.17;;;;;;;;;;6204445;23;20021;-55
2022/12/17 18:07:14;;;;;;;99.90;35.40;;;;;;;;;;6202609;23;20107;-49
2022/12/17 18:09:51;;;;;;;83.00;29.98;;;;;;;;;;6204039;23;20027;-57
2022/12/17 18:15:11;;;;;;;83.35;28.50;;;;;;;;;;6203559;23;20025;-63
2022/12/17 18:17:46;;;;;;;79.00;28.45;;;;;;;;;;6205747;23;20029;-54
2022/12/17 18:20:20;;;;;;;89.43;33.95;;;;;;;;;;6206206;23;20079;-49
2022/12/17 18:23:01;;;;;;;84.82;28.95;;;;;;;;;;6204214;23;20104;-48
2022/12/17 18:25:28;;;;;;;80.70;29.48;;;;;;;;;;6206053;23;20016;-48
2022/12/17 18:28:04;;;;;;;85.50;27.40;;;;;;;;;;6204560;23;20509;-53
2022/12/17 18:30:31;;;;;;;89.47;30.20;;;;;;;;;;6199760;23;20111;-49
2022/12/17 18:33:05;;;;;;;93.57;34.10;;;;;;;;;;6180888;23;20097;-51
2022/12/17 18:35:32;;;;;;;78.88;31.55;;;;;;;;;;6203169;23;20100;-69
2022/12/17 18:37:59;;;;;;;81.32;28.10;;;;;;;;;;6200641;23;20028;-62
2022/12/17 18:40:35;;;;;;;83.15;28.67;;;;;;;;;;6204143;23;20031;-62
2022/12/17 18:45:54;;;;;;;80.90;29.58;;;;;;;;;;6203628;23;20454;-62
2022/12/17 18:48:23;;;;;;;83.10;29.25;;;;;;;;;;6205663;23;20024;-63
2022/12/17 18:50:57;;;;;;;82.15;28.75;;;;;;;;;;6203075;23;20020;-63
2022/12/17 18:53:32;;;;;;;86.25;29.20;;;;;;;;;;6201040;23;20029;-47
2022/12/17 18:56:05;;;;;;;85.93;28.27;;;;;;;;;;6204801;23;20031;-60
2022/12/17 18:58:53;;;;;;;90.35;30.70;;;;;;;;;;6201796;23;20024;-68
2022/12/17 19:01:21;;;;;;;89.97;34.58;;;;;;;;;;6199401;23;20354;-68
2022/12/17 19:03:55;;;;;;;85.53;28.60;;;;;;;;;;6203569;23;20409;-69
2022/12/17 19:06:24;;;;;;;86.30;30.00;;;;;;;;;;6204476;23;20123;-70
2022/12/17 19:08:51;;;;;;;76.43;28.63;;;;;;;;;;6204754;23;20354;-69
2022/12/17 19:11:25;;;;;;;77.50;28.02;;;;;;;;;;6204806;23;20025;-58
2022/12/17 19:13:52;;;;;;;75.10;25.05;;;;;;;;;;6204738;23;20100;-65
2022/12/17 19:16:27;;;;;;;77.07;29.85;;;;;;;;;;6204440;23;20111;-62
2022/12/17 19:19:09;;;;;;;103.85;30.48;;;;;;;;;;6205172;23;20060;-62
2022/12/17 19:21:43;;;;;;;74.07;28.02;;;;;;;;;;6205853;23;20027;-63
2022/12/17 19:24:15;;;;;;;82.32;30.15;;;;;;;;;;6205807;23;20131;-62
2022/12/17 19:26:42;;;;;;;82.93;28.67;;;;;;;;;;6204924;23;20017;-62
2022/12/17 19:29:16;;;;;;;77.88;24.40;;;;;;;;;;6204837;23;20033;-62
2022/12/17 19:31:44;;;;;;;74.22;28.52;;;;;;;;;;6206532;23;20103;-60
2022/12/17 19:34:18;;;;;;;82.63;29.00;;;;;;;;;;6205927;23;20043;-55
2022/12/17 19:36:46;;;;;;;78.43;27.23;;;;;;;;;;6204458;23;20120;-55
2022/12/17 19:39:14;;;;;;;86.47;28.88;;;;;;;;;;6206536;23;20360;-53
2022/12/17 19:41:49;;;;;;;89.20;29.83;;;;;;;;;;6205527;23;20016;-52
2022/12/17 19:44:18;;;;;;;85.90;30.15;;;;;;;;;;6206197;23;20029;-54
2022/12/17 19:46:52;;;;;;;80.68;28.25;;;;;;;;;;6206438;23;20361;-58
2022/12/17 19:49:19;;;;;;;82.28;26.85;;;;;;;;;;6206914;23;20047;-47
2022/12/17 19:51:46;;;;;;;81.43;27.45;;;;;;;;;;6204647;23;20056;-56
2022/12/17 19:54:23;;;;;;;76.35;26.38;;;;;;;;;;6205153;23;20075;-68
2022/12/17 19:56:50;;;;;;;95.20;28.60;;;;;;;;;;6202390;23;20467;-68
2022/12/17 19:59:17;;;;;;;71.07;26.25;;;;;;;;;;6204103;23;20100;-68
2022/12/17 20:01:51;;;;;;;74.57;30.17;;;;;;;;;;6205192;23;20123;-68
2022/12/17 20:04:18;;;;;;;87.45;28.70;;;;;;;;;;6203653;23;20024;-69
2022/12/17 20:06:45;;;;;;;80.65;28.52;;;;;;;;;;6204016;23;20538;-67
2022/12/17 20:09:19;;;;;;;87.65;30.08;;;;;;;;;;6203946;23;20644;-47
2022/12/17 20:11:46;;;;;;;80.25;27.42;;;;;;;;;;6206155;23;20060;-64
2022/12/17 20:14:22;;;;;;;80.10;27.83;;;;;;;;;;6200889;23;20024;-50
2022/12/17 20:16:54;;;;;;;67.00;25.58;;;;;;;;;;6201820;23;20020;-50
2022/12/17 20:19:35;;;;;;;80.05;30.23;;;;;;;;;;6204498;23;20037;-48
2022/12/17 20:22:09;;;;;;;91.18;29.38;;;;;;;;;;6206071;23;20119;-48
2022/12/17 20:24:43;;;;;;;92.43;28.05;;;;;;;;;;6203445;23;20021;-54
2022/12/17 20:27:10;;;;;;;84.93;29.65;;;;;;;;;;6203418;23;20027;-48
2022/12/17 20:29:37;;;;;;;80.05;28.23;;;;;;;;;;6201948;23;20353;-48
2022/12/17 20:32:11;;;;;;;83.22;27.50;;;;;;;;;;6204647;23;20025;-50
2022/12/17 20:34:38;;;;;;;86.03;30.13;;;;;;;;;;6202964;23;20533;-50
2022/12/17 20:37:05;;;;;;;86.82;29.80;;;;;;;;;;6204969;23;20404;-49
2022/12/17 20:39:39;;;;;;;72.82;24.25;;;;;;;;;;6205965;23;20031;-53
2022/12/17 20:42:13;;;;;;;84.05;27.52;;;;;;;;;;6204650;23;20067;-48
2022/12/17 20:44:40;;;;;;;80.45;27.02;;;;;;;;;;6205142;23;20545;-53
2022/12/17 20:47:08;;;;;;;74.43;26.00;;;;;;;;;;6203062;23;20047;-60
2022/12/17 20:49:41;;;;;;;70.97;25.67;;;;;;;;;;6203082;23;20031;-55
2022/12/17 20:52:08;;;;;;;82.30;24.15;;;;;;;;;;6203007;23;20107;-62
2022/12/17 20:54:42;;;;;;;86.25;28.58;;;;;;;;;;6204608;23;20099;-62
2022/12/17 20:57:09;;;;;;;78.30;29.52;;;;;;;;;;6204686;23;20052;-62
2022/12/17 20:59:43;;;;;;;84.85;28.23;;;;;;;;;;6203418;23;20020;-62
2022/12/17 21:02:10;;;;;;;70.82;26.63;;;;;;;;;;6207021;23;20052;-62
2022/12/17 21:04:38;;;;;;;73.43;26.52;;;;;;;;;;6201768;23;20075;-63
2022/12/17 21:07:11;;;;;;;74.03;24.98;;;;;;;;;;6204503;23;20031;-56
2022/12/17 21:09:38;;;;;;;78.93;26.40;;;;;;;;;;6204418;23;20020;-60
2022/12/17 21:12:12;;;;;;;78.32;28.23;;;;;;;;;;6204254;23;20031;-58
2022/12/17 21:14:39;;;;;;;80.55;27.40;;;;;;;;;;6204349;23;20027;-60
2022/12/17 21:17:13;;;;;;;82.70;30.08;;;;;;;;;;6205901;23;20027;-58
2022/12/17 21:19:47;;;;;;;77.90;27.48;;;;;;;;;;6201910;23;20115;-59
2022/12/17 21:22:29;;;;;;;82.20;27.42;;;;;;;;;;6204154;23;20324;-59
2022/12/17 21:24:56;;;;;;;76.22;24.83;;;;;;;;;;6203835;23;20478;-69
2022/12/17 21:27:30;;;;;;;80.50;27.42;;;;;;;;;;6204572;23;20560;-51
2022/12/17 21:29:57;;;;;;;92.25;29.00;;;;;;;;;;6203682;23;20020;-57
2022/12/17 21:32:25;;;;;;;;;;;;;;;;;;6205554;23;20024;-58
2022/12/17 21:35:00;;;;;;;86.13;29.38;;;;;;;;;;6205009;23;19946;-56
2022/12/17 21:37:27;;;;;;;87.45;31.50;;;;;;;;;;6179429;23;20031;-55
2022/12/17 21:40:01;;;;;;;83.70;28.42;;;;;;;;;;6204249;23;20027;-56
2022/12/17 21:45:21;;;;;;;88.97;29.60;;;;;;;;;;6205107;23;20024;-47
2022/12/17 21:47:48;;;;;;;90.03;28.48;;;;;;;;;;6207094;23;20366;-69
2022/12/17 21:50:16;;;;;;;85.95;30.58;;;;;;;;;;6206329;23;20024;-69
2022/12/17 21:52:49;;;;;;;103.47;32.50;;;;;;;;;;6207627;23;20082;-69
2022/12/17 21:55:16;;;;;;;103.53;31.67;;;;;;;;;;6207170;23;20024;-69
2022/12/17 21:57:50;;;;;;;95.38;31.42;;;;;;;;;;6206798;23;20343;-69
2022/12/17 22:00:17;;;;;;;96.57;31.70;;;;;;;;;;6207298;23;20020;-69
2022/12/17 22:02:51;;;;;;;110.65;31.70;;;;;;;;;;6207658;23;20047;-69
2022/12/17 22:05:18;;;;;;;110.43;31.83;;;;;;;;;;6207457;23;20031;-57
2022/12/17 22:07:46;;;;;;;99.95;32.17;;;;;;;;;;6207134;23;20025;-52
2022/12/17 22:10:20;;;;;;;115.88;34.25;;;;;;;;;;6207534;23;20119;-47
2022/12/17 22:16:08;;;;;;;115.43;38.50;;;;;;;;;;6175483;23;20052;-49
2022/12/17 22:18:41;;;;;;;110.07;37.80;;;;;;;;;;6207038;23;20031;-48
2022/12/17 22:21:23;;;;;;;108.32;33.83;;;;;;;;;;6208637;23;20365;-48
2022/12/17 22:23:50;;;;;;;102.68;38.20;;;;;;;;;;6207976;23;20103;-55
2022/12/17 22:26:24;;;;;;;98.25;33.40;;;;;;;;;;6209968;23;20016;-58
2022/12/17 22:28:51;;;;;;;119.35;34.17;;;;;;;;;;6210221;23;20024;-60
2022/12/17 22:34:13;;;;;;;120.30;35.17;;;;;;;;;;6210356;23;20021;-55
2022/12/17 22:37:00;;;;;;;115.00;34.13;;;;;;;;;;6209699;23;20021;-55
2022/12/17 22:39:53;;;;;;;107.43;34.13;;;;;;;;;;6208950;23;20031;-57
2022/12/17 22:45:57;;;;;;;113.20;37.15;;;;;;;;;;6208681;23;20025;-56
2022/12/17 22:48:32;;;;;;;100.18;33.47;;;;;;;;;;6210431;23;20037;-57
2022/12/17 22:51:07;;;;;;;106.03;37.05;;;;;;;;;;6209870;23;20103;-58
2022/12/17 22:53:56;;;;;;;104.22;35.03;;;;;;;;;;6183891;23;20031;-57
2022/12/17 22:56:30;;;;;;;88.00;31.85;;;;;;;;;;6210554;23;20020;-54
2022/12/17 22:59:24;;;;;;;107.03;35.38;;;;;;;;;;6208810;23;20035;-54
2022/12/17 23:01:51;;;;;;;107.05;36.35;;;;;;;;;;6209951;23;20020;-57
2022/12/17 23:04:25;;;;;;;100.80;32.55;;;;;;;;;;6208689;23;20071;-62
2022/12/17 23:06:52;;;;;;;107.10;36.40;;;;;;;;;;6209528;23;20373;-63
2022/12/17 23:09:26;;;;;;;97.22;35.15;;;;;;;;;;6208813;23;20717;-62
2022/12/17 23:11:53;;;;;;;99.65;33.25;;;;;;;;;;6209778;23;20056;-62
2022/12/17 23:14:20;;;;;;;91.85;29.33;;;;;;;;;;6209518;23;20516;-62
2022/12/17 23:17:01;;;;;;;92.00;33.25;;;;;;;;;;6209148;23;20017;-62
2022/12/17 23:19:35;;;;;;;107.78;33.80;;;;;;;;;;6206237;23;20028;-47
2022/12/17 23:22:09;;;;;;;88.95;33.10;;;;;;;;;;6207737;23;20060;-54
2022/12/17 23:24:36;;;;;;;97.63;31.48;;;;;;;;;;6208179;23;20873;-51
2022/12/17 23:27:03;;;;;;;91.55;30.67;;;;;;;;;;6207933;23;20423;-47
2022/12/17 23:29:37;;;;;;;94.50;29.00;;;;;;;;;;6208038;23;20449;-53
2022/12/17 23:32:04;;;;;;;84.28;29.60;;;;;;;;;;6209267;23;20021;-48
2022/12/17 23:34:38;;;;;;;87.72;29.05;;;;;;;;;;6208891;23;20096;-48
2022/12/17 23:37:05;;;;;;;82.22;30.48;;;;;;;;;;6207714;23;20028;-48
2022/12/17 23:39:32;;;;;;;84.05;30.25;;;;;;;;;;6209089;23;20103;-63
2022/12/17 23:42:06;;;;;;;65.05;23.20;;;;;;;;;;6208186;23;20644;-64
2022/12/17 23:44:33;;;;;;;110.90;31.08;;;;;;;;;;6209130;23;20112;-66
2022/12/17 23:47:00;;;;;;;78.40;28.75;;;;;;;;;;6207886;23;20385;-66
2022/12/17 23:49:34;;;;;;;84.18;29.27;;;;;;;;;;6207638;23;20025;-66
2022/12/17 23:52:01;;;;;;;91.03;28.40;;;;;;;;;;6208573;23;20016;-66
2022/12/17 23:54:35;;;;;;;92.45;30.35;;;;;;;;;;6209488;23;20028;-66
2022/12/17 23:57:02;;;;;;;91.25;30.27;;;;;;;;;;6206940;23;20580;-51
2022/12/17 23:59:29;;;;;;;97.72;34.28;;;;;;;;;;6207618;23;20107;-48
